Time;durP1;ratioP1;P1;durP2;ratioP2;P2;SDS_P1;SDS_P2;PMS_P1;PMS_P2;Temp;Humidity;BMP_temperature;BMP_pressure;BME280_temperature;BME280_humidity;BME280_pressure;Samples;Min_cycle;Max_cycle;Signal;HPM_P1;HPM_P2
2021/10/04 00:01:53;;;;;;;10.35;8.73;;;;;;;;;;5010716;28;20022;-72
2021/10/04 00:04:18;;;;;;;10.30;9.30;;;;;;;;;;5010534;28;20030;-72
2021/10/04 00:06:43;;;;;;;9.82;8.55;;;;;;;;;;4996720;28;20032;-72
2021/10/04 00:09:08;;;;;;;8.65;7.85;;;;;;;;;;4996972;28;20034;-72
2021/10/04 00:11:34;;;;;;;9.93;7.93;;;;;;;;;;5001673;28;20030;-73
2021/10/04 00:13:59;;;;;;;8.77;7.97;;;;;;;;;;4995262;28;20284;-72
2021/10/04 00:16:24;;;;;;;8.97;7.37;;;;;;;;;;4996289;28;20348;-73
2021/10/04 00:18:49;;;;;;;8.43;7.63;;;;;;;;;;5016410;28;20283;-72
2021/10/04 00:21:14;;;;;;;8.45;7.57;;;;;;;;;;5013513;28;20281;-73
2021/10/04 00:23:40;;;;;;;9.70;7.63;;;;;;;;;;5012642;28;20096;-73
2021/10/04 00:26:05;;;;;;;8.57;7.60;;;;;;;;;;5024196;28;20468;-73
2021/10/04 00:28:30;;;;;;;7.93;7.10;;;;;;;;;;5002567;28;20100;-73
2021/10/04 00:30:55;;;;;;;7.78;7.03;;;;;;;;;;5012902;28;20076;-73
2021/10/04 00:33:21;;;;;;;7.50;6.70;;;;;;;;;;5013267;28;20030;-74
2021/10/04 00:35:46;;;;;;;7.40;6.68;;;;;;;;;;5011627;28;20285;-73
2021/10/04 00:38:11;;;;;;;9.90;7.93;;;;;;;;;;5017644;28;20026;-73
2021/10/04 00:40:36;;;;;;;9.27;8.25;;;;;;;;;;5000310;28;20018;-72
2021/10/04 00:43:02;;;;;;;8.20;7.05;;;;;;;;;;5004936;28;20030;-72
2021/10/04 00:45:28;;;;;;;8.15;7.38;;;;;;;;;;4994415;28;20025;-72
2021/10/04 00:47:53;;;;;;;8.75;7.85;;;;;;;;;;5016287;28;20057;-72
2021/10/04 00:50:19;;;;;;;8.50;7.60;;;;;;;;;;4994805;28;20095;-72
2021/10/04 00:52:44;;;;;;;8.70;7.90;;;;;;;;;;4995970;28;20037;-71
2021/10/04 00:55:10;;;;;;;8.32;7.10;;;;;;;;;;5002532;28;20444;-72
2021/10/04 00:57:36;;;;;;;7.95;7.20;;;;;;;;;;5017528;28;20559;-73
2021/10/04 01:00:03;;;;;;;8.38;7.57;;;;;;;;;;4993422;28;20053;-72
2021/10/04 01:02:29;;;;;;;8.77;7.88;;;;;;;;;;5011885;28;20049;-71
2021/10/04 01:04:54;;;;;;;9.38;7.88;;;;;;;;;;4994882;28;20080;-72
2021/10/04 01:07:19;;;;;;;8.07;7.35;;;;;;;;;;5029324;28;20472;-72
2021/10/04 01:09:44;;;;;;;8.10;7.40;;;;;;;;;;4995087;28;20061;-73
2021/10/04 01:12:10;;;;;;;8.70;7.43;;;;;;;;;;5011389;28;20276;-73
2021/10/04 01:14:35;;;;;;;8.63;7.63;;;;;;;;;;5017080;28;20017;-71
2021/10/04 01:17:00;;;;;;;7.97;7.18;;;;;;;;;;4996873;28;20026;-72
2021/10/04 01:19:26;;;;;;;8.20;7.40;;;;;;;;;;5022537;28;20033;-72
2021/10/04 01:21:51;;;;;;;8.60;7.80;;;;;;;;;;4993557;28;20022;-72
2021/10/04 01:24:17;;;;;;;8.55;7.75;;;;;;;;;;5012817;28;20412;-72
2021/10/04 01:26:43;;;;;;;8.77;7.70;;;;;;;;;;4996196;28;20018;-72
2021/10/04 01:29:08;;;;;;;10.60;7.85;;;;;;;;;;5011195;28;20293;-72
2021/10/04 01:31:33;;;;;;;8.80;7.90;;;;;;;;;;5026315;28;20125;-72
2021/10/04 01:33:58;;;;;;;7.57;6.88;;;;;;;;;;4992642;28;20448;-72
2021/10/04 01:36:25;;;;;;;9.00;7.13;;;;;;;;;;4993617;28;20036;-76
2021/10/04 01:38:50;;;;;;;8.00;7.20;;;;;;;;;;5013618;28;20049;-72
2021/10/04 01:41:16;;;;;;;8.27;7.40;;;;;;;;;;5019432;28;20463;-73
2021/10/04 01:43:41;;;;;;;8.95;8.05;;;;;;;;;;5010548;28;20507;-73
2021/10/04 01:46:06;;;;;;;8.32;7.35;;;;;;;;;;4994584;28;20542;-72
2021/10/04 01:48:31;;;;;;;8.73;7.82;;;;;;;;;;5014155;28;20109;-72
2021/10/04 01:50:57;;;;;;;17.70;7.85;;;;;;;;;;4995549;28;20025;-72
2021/10/04 01:53:22;;;;;;;9.50;8.60;;;;;;;;;;5005370;28;20483;-71
2021/10/04 01:55:47;;;;;;;8.85;7.97;;;;;;;;;;5011776;28;20503;-73
2021/10/04 01:58:12;;;;;;;8.55;7.75;;;;;;;;;;5012132;28;20061;-72
2021/10/04 02:00:38;;;;;;;7.95;7.15;;;;;;;;;;5014669;28;20105;-71
2021/10/04 02:03:04;;;;;;;11.40;9.10;;;;;;;;;;5016834;28;20053;-72
2021/10/04 02:05:30;;;;;;;8.77;7.88;;;;;;;;;;5027013;28;20118;-72
2021/10/04 02:07:55;;;;;;;10.07;8.75;;;;;;;;;;4989947;28;20487;-72
2021/10/04 02:10:23;;;;;;;8.40;6.93;;;;;;;;;;4994325;28;20369;-71
2021/10/04 02:12:49;;;;;;;9.55;8.52;;;;;;;;;;5012059;28;20141;-73
2021/10/04 02:15:15;;;;;;;9.52;7.90;;;;;;;;;;5009042;28;20523;-73
2021/10/04 02:17:40;;;;;;;9.02;8.15;;;;;;;;;;5011932;28;20042;-73
2021/10/04 02:20:08;;;;;;;9.43;8.52;;;;;;;;;;5012129;28;20041;-73
2021/10/04 02:22:33;;;;;;;8.98;8.07;;;;;;;;;;5011206;28;20015;-73
2021/10/04 02:24:58;;;;;;;9.32;8.43;;;;;;;;;;5014112;28;20037;-73
2021/10/04 02:27:23;;;;;;;8.70;7.82;;;;;;;;;;4993997;28;20427;-73
2021/10/04 02:29:49;;;;;;;10.85;8.32;;;;;;;;;;4994001;28;20026;-73
2021/10/04 02:32:14;;;;;;;8.90;8.00;;;;;;;;;;4993675;28;20022;-70
2021/10/04 02:34:39;;;;;;;9.55;8.43;;;;;;;;;;5006892;28;20087;-73
2021/10/04 02:37:05;;;;;;;9.23;8.32;;;;;;;;;;4979840;28;20042;-73
2021/10/04 02:39:30;;;;;;;8.73;7.90;;;;;;;;;;5001701;28;20032;-73
2021/10/04 02:41:55;;;;;;;9.88;7.65;;;;;;;;;;5013614;28;20368;-73
2021/10/04 02:44:20;;;;;;;9.05;7.55;;;;;;;;;;5026428;28;20060;-73
2021/10/04 02:46:46;;;;;;;8.30;7.50;;;;;;;;;;5015732;28;20445;-73
2021/10/04 02:49:11;;;;;;;8.60;7.72;;;;;;;;;;5010979;28;20053;-73
2021/10/04 02:51:36;;;;;;;8.38;7.53;;;;;;;;;;5010921;28;20029;-73
2021/10/04 02:54:02;;;;;;;8.88;7.97;;;;;;;;;;5001242;28;20514;-73
2021/10/04 02:56:27;;;;;;;9.05;8.15;;;;;;;;;;4968984;28;20050;-73
2021/10/04 02:58:52;;;;;;;9.82;8.80;;;;;;;;;;4989488;28;20057;-73
2021/10/04 03:01:17;;;;;;;9.25;8.35;;;;;;;;;;4995676;28;20084;-74
2021/10/04 03:03:43;;;;;;;8.88;7.97;;;;;;;;;;4994122;28;20025;-73
2021/10/04 03:06:08;;;;;;;9.32;7.95;;;;;;;;;;5003315;28;20060;-73
2021/10/04 03:08:33;;;;;;;9.00;8.10;;;;;;;;;;4999805;28;20022;-73
2021/10/04 03:10:58;;;;;;;8.50;7.70;;;;;;;;;;5006317;28;20267;-73
2021/10/04 03:13:23;;;;;;;9.60;8.60;;;;;;;;;;4995876;28;20099;-73
2021/10/04 03:15:49;;;;;;;10.50;8.75;;;;;;;;;;5001163;28;20068;-73
2021/10/04 03:18:14;;;;;;;9.75;8.75;;;;;;;;;;5004624;28;20494;-72
2021/10/04 03:20:40;;;;;;;10.95;8.40;;;;;;;;;;5015158;28;20090;-73
2021/10/04 03:23:05;;;;;;;10.48;9.43;;;;;;;;;;5013783;28;20105;-73
2021/10/04 03:25:30;;;;;;;9.82;8.48;;;;;;;;;;5006154;28;20436;-73
2021/10/04 03:27:55;;;;;;;10.23;8.00;;;;;;;;;;5003509;28;20029;-73
2021/10/04 03:30:21;;;;;;;9.13;8.20;;;;;;;;;;4999172;28;20101;-73
2021/10/04 03:32:46;;;;;;;9.68;8.40;;;;;;;;;;5005102;28;20022;-73
2021/10/04 03:35:12;;;;;;;9.60;8.60;;;;;;;;;;4981799;28;20531;-73
2021/10/04 03:37:37;;;;;;;9.02;7.88;;;;;;;;;;4993691;28;20026;-74
2021/10/04 03:40:03;;;;;;;9.60;8.60;;;;;;;;;;5004405;28;20033;-71
2021/10/04 03:42:29;;;;;;;10.02;8.65;;;;;;;;;;5014913;28;20026;-72
2021/10/04 03:44:54;;;;;;;10.13;8.27;;;;;;;;;;5009182;28;20077;-73
2021/10/04 03:47:19;;;;;;;8.73;7.83;;;;;;;;;;4994931;28;20296;-72
2021/10/04 03:49:44;;;;;;;8.00;7.20;;;;;;;;;;4991970;28;20313;-71
2021/10/04 03:52:09;;;;;;;6.00;5.35;;;;;;;;;;4993936;28;20064;-72
2021/10/04 03:54:35;;;;;;;6.95;6.07;;;;;;;;;;4992260;28;20031;-71
2021/10/04 03:57:00;;;;;;;6.57;5.57;;;;;;;;;;5007367;28;20065;-72
2021/10/04 03:59:25;;;;;;;7.18;6.40;;;;;;;;;;5010494;28;20529;-72
2021/10/04 04:01:51;;;;;;;6.95;6.30;;;;;;;;;;5030681;28;20480;-72
2021/10/04 04:04:16;;;;;;;7.45;6.75;;;;;;;;;;5033904;28;20037;-73
2021/10/04 04:06:41;;;;;;;7.20;6.20;;;;;;;;;;5001744;28;20021;-73
2021/10/04 04:09:06;;;;;;;6.63;5.63;;;;;;;;;;5008408;28;20024;-72
2021/10/04 04:11:32;;;;;;;6.00;4.85;;;;;;;;;;5005709;28;20022;-72
2021/10/04 04:13:57;;;;;;;6.85;5.10;;;;;;;;;;5012126;28;20025;-73
2021/10/04 04:16:22;;;;;;;4.95;4.55;;;;;;;;;;5007201;28;20030;-73
2021/10/04 04:18:47;;;;;;;5.10;4.70;;;;;;;;;;4986218;28;20038;-73
2021/10/04 04:21:13;;;;;;;4.53;4.13;;;;;;;;;;4960889;28;20472;-73
2021/10/04 04:23:38;;;;;;;4.70;4.30;;;;;;;;;;5029189;28;20033;-73
2021/10/04 04:26:03;;;;;;;4.43;4.03;;;;;;;;;;5003175;28;20440;-73
2021/10/04 04:28:28;;;;;;;4.15;3.00;;;;;;;;;;5020772;28;20237;-73
2021/10/04 04:30:54;;;;;;;4.15;3.78;;;;;;;;;;4995572;28;20380;-73
2021/10/04 04:33:19;;;;;;;3.58;3.17;;;;;;;;;;5012536;28;20507;-73
2021/10/04 04:35:44;;;;;;;3.53;3.17;;;;;;;;;;5026090;28;20504;-73
2021/10/04 04:38:09;;;;;;;3.33;3.03;;;;;;;;;;5013317;28;20058;-73
2021/10/04 04:40:34;;;;;;;3.25;2.92;;;;;;;;;;5000144;28;20291;-73
2021/10/04 04:43:00;;;;;;;3.20;2.90;;;;;;;;;;5016401;28;20108;-72
2021/10/04 04:45:25;;;;;;;3.03;2.72;;;;;;;;;;5012976;28;20021;-73
2021/10/04 04:47:50;;;;;;;3.22;2.92;;;;;;;;;;5013336;28;20100;-73
2021/10/04 04:50:17;;;;;;;3.53;3.10;;;;;;;;;;5012944;28;20034;-72
2021/10/04 04:52:42;;;;;;;4.15;3.75;;;;;;;;;;5003144;28;20476;-73
2021/10/04 04:55:08;;;;;;;3.05;2.80;;;;;;;;;;4996633;28;20494;-72
2021/10/04 04:57:33;;;;;;;4.25;3.90;;;;;;;;;;5025660;28;20042;-72
2021/10/04 04:59:58;;;;;;;5.45;3.30;;;;;;;;;;5007587;28;20365;-73
2021/10/04 05:02:24;;;;;;;4.00;3.60;;;;;;;;;;4994869;28;20376;-73
2021/10/04 05:04:50;;;;;;;3.35;2.92;;;;;;;;;;4993800;28;20306;-73
2021/10/04 05:07:15;;;;;;;5.07;2.80;;;;;;;;;;4994879;28;20539;-72
2021/10/04 05:09:40;;;;;;;3.53;3.22;;;;;;;;;;4982729;28;20030;-73
2021/10/04 05:12:05;;;;;;;5.10;3.00;;;;;;;;;;4993589;28;20392;-72
2021/10/04 05:14:31;;;;;;;4.80;3.10;;;;;;;;;;5011690;28;20121;-72
2021/10/04 05:16:56;;;;;;;3.75;2.90;;;;;;;;;;4992155;28;20028;-72
2021/10/04 05:19:21;;;;;;;3.78;2.95;;;;;;;;;;5003768;28;20171;-72
2021/10/04 05:21:46;;;;;;;3.25;2.80;;;;;;;;;;5017166;28;20388;-72
2021/10/04 05:24:12;;;;;;;3.63;2.65;;;;;;;;;;5000200;28;20494;-72
2021/10/04 05:26:37;;;;;;;2.55;2.05;;;;;;;;;;4988072;28;20026;-73
2021/10/04 05:29:03;;;;;;;2.65;2.30;;;;;;;;;;5015080;28;20109;-73
2021/10/04 05:31:28;;;;;;;5.97;2.60;;;;;;;;;;4995249;28;20026;-73
2021/10/04 05:33:53;;;;;;;3.42;2.63;;;;;;;;;;4978345;28;20065;-73
2021/10/04 05:36:18;;;;;;;2.42;2.20;;;;;;;;;;5010905;28;20626;-72
2021/10/04 05:38:46;;;;;;;3.30;2.30;;;;;;;;;;5003566;28;20029;-73
2021/10/04 05:41:12;;;;;;;4.45;2.65;;;;;;;;;;5005392;28;20284;-71
2021/10/04 05:43:37;;;;;;;3.47;2.50;;;;;;;;;;5010843;28;20111;-72
2021/10/04 05:46:02;;;;;;;2.85;2.40;;;;;;;;;;4993109;28;20033;-72
2021/10/04 05:48:28;;;;;;;2.60;2.17;;;;;;;;;;5009855;28;20029;-72
2021/10/04 05:50:53;;;;;;;3.47;2.63;;;;;;;;;;5011872;28;20080;-71
2021/10/04 05:53:18;;;;;;;2.92;2.25;;;;;;;;;;5000737;28;20035;-71
2021/10/04 05:55:44;;;;;;;2.78;2.45;;;;;;;;;;5015718;28;20407;-72
2021/10/04 05:58:09;;;;;;;3.42;2.22;;;;;;;;;;4995836;28;20060;-72
2021/10/04 06:00:35;;;;;;;2.92;2.20;;;;;;;;;;5011173;28;20017;-71
2021/10/04 06:03:00;;;;;;;4.93;2.60;;;;;;;;;;5023712;28;20018;-71
2021/10/04 06:05:25;;;;;;;3.90;2.65;;;;;;;;;;5011182;28;20029;-71
2021/10/04 06:07:50;;;;;;;4.53;2.67;;;;;;;;;;4993472;28;20140;-71
2021/10/04 06:10:17;;;;;;;4.78;2.53;;;;;;;;;;4993040;28;20292;-71
2021/10/04 06:12:42;;;;;;;2.25;1.75;;;;;;;;;;5016380;28;20113;-71
2021/10/04 06:15:08;;;;;;;2.83;2.58;;;;;;;;;;4993192;28;20171;-71
2021/10/04 06:17:34;;;;;;;2.97;2.00;;;;;;;;;;5011092;28;20030;-71
2021/10/04 06:19:59;;;;;;;2.60;2.38;;;;;;;;;;4999091;28;20018;-72
2021/10/04 06:22:24;;;;;;;2.33;2.10;;;;;;;;;;5010856;28;20022;-71
2021/10/04 06:24:50;;;;;;;4.18;2.33;;;;;;;;;;4991771;28;20357;-71
2021/10/04 06:27:16;;;;;;;2.17;1.95;;;;;;;;;;5016079;28;20021;-74
2021/10/04 06:29:42;;;;;;;3.85;2.38;;;;;;;;;;5017663;28;20376;-75
2021/10/04 06:32:07;;;;;;;2.72;2.53;;;;;;;;;;4999783;28;20168;-76
2021/10/04 06:34:32;;;;;;;2.70;2.50;;;;;;;;;;5016719;28;20109;-74
2021/10/04 06:36:57;;;;;;;2.65;2.05;;;;;;;;;;5007028;28;20049;-75
2021/10/04 06:39:23;;;;;;;3.03;2.57;;;;;;;;;;5001871;28;20506;-73
2021/10/04 06:41:48;;;;;;;2.87;2.27;;;;;;;;;;5011086;28;20284;-73
2021/10/04 06:44:13;;;;;;;2.80;2.25;;;;;;;;;;5018978;28;20285;-73
2021/10/04 06:46:39;;;;;;;2.60;2.30;;;;;;;;;;5009670;28;20260;-73
2021/10/04 06:49:05;;;;;;;2.80;2.42;;;;;;;;;;5015489;28;20283;-73
2021/10/04 06:51:30;;;;;;;2.83;2.42;;;;;;;;;;5015123;28;20021;-73
2021/10/04 06:53:56;;;;;;;2.65;2.45;;;;;;;;;;5013965;28;20022;-73
2021/10/04 06:56:21;;;;;;;2.75;2.55;;;;;;;;;;5011121;28;20041;-73
2021/10/04 06:58:46;;;;;;;2.92;2.33;;;;;;;;;;5014279;28;20027;-73
2021/10/04 07:01:11;;;;;;;2.95;2.53;;;;;;;;;;5014041;28;21235;-73
2021/10/04 07:03:36;;;;;;;2.78;2.53;;;;;;;;;;5011374;28;20025;-73
2021/10/04 07:06:02;;;;;;;4.05;2.67;;;;;;;;;;4980663;28;20121;-74
2021/10/04 07:08:27;;;;;;;3.70;2.70;;;;;;;;;;5014791;28;20345;-74
2021/10/04 07:10:53;;;;;;;2.80;2.55;;;;;;;;;;4996974;28;20440;-73
2021/10/04 07:13:18;;;;;;;3.25;2.35;;;;;;;;;;5013797;28;20030;-74
2021/10/04 07:15:43;;;;;;;3.92;2.63;;;;;;;;;;5013942;28;20499;-75
2021/10/04 07:18:08;;;;;;;3.75;3.30;;;;;;;;;;5013548;28;20107;-73
2021/10/04 07:20:34;;;;;;;2.70;2.50;;;;;;;;;;5014835;28;20025;-74
2021/10/04 07:23:00;;;;;;;5.63;3.08;;;;;;;;;;5013838;28;20462;-74
2021/10/04 07:25:25;;;;;;;6.18;3.03;;;;;;;;;;4975180;28;20492;-73
2021/10/04 07:27:51;;;;;;;4.18;3.30;;;;;;;;;;5007499;28;20053;-73
2021/10/04 07:30:16;;;;;;;5.15;3.22;;;;;;;;;;5011563;28;20109;-72
2021/10/04 07:32:41;;;;;;;5.30;3.35;;;;;;;;;;4996596;28;20026;-72
2021/10/04 07:35:07;;;;;;;3.95;3.50;;;;;;;;;;5013630;28;20388;-72
2021/10/04 07:37:32;;;;;;;3.90;3.35;;;;;;;;;;5014886;28;20476;-72
2021/10/04 07:39:57;;;;;;;3.50;3.20;;;;;;;;;;5014360;28;20089;-72
2021/10/04 07:42:22;;;;;;;4.25;3.22;;;;;;;;;;5014228;28;20025;-72
2021/10/04 07:44:48;;;;;;;3.45;2.92;;;;;;;;;;5013693;28;20029;-72
2021/10/04 07:47:14;;;;;;;4.80;3.60;;;;;;;;;;5014257;28;20022;-73
2021/10/04 07:49:39;;;;;;;4.03;3.15;;;;;;;;;;5013605;28;20037;-76
2021/10/04 07:52:04;;;;;;;3.38;2.67;;;;;;;;;;5013866;28;20030;-73
2021/10/04 07:54:30;;;;;;;3.80;3.10;;;;;;;;;;4992874;28;20088;-71
2021/10/04 07:56:55;;;;;;;3.80;2.90;;;;;;;;;;5013599;28;20409;-73
2021/10/04 07:59:20;;;;;;;4.05;3.13;;;;;;;;;;5011011;28;20102;-73
2021/10/04 08:01:45;;;;;;;4.78;3.65;;;;;;;;;;5012967;28;20029;-73
2021/10/04 08:04:11;;;;;;;3.75;3.38;;;;;;;;;;5013652;28;20030;-72
2021/10/04 08:06:37;;;;;;;6.18;4.13;;;;;;;;;;4996359;28;20048;-73
2021/10/04 08:09:02;;;;;;;4.30;3.30;;;;;;;;;;5013782;28;20061;-73
2021/10/04 08:11:27;;;;;;;4.03;3.63;;;;;;;;;;4995720;28;20021;-73
2021/10/04 08:13:52;;;;;;;4.10;3.28;;;;;;;;;;5013414;28;20049;-73
2021/10/04 08:16:20;;;;;;;4.10;3.60;;;;;;;;;;4995420;28;20429;-73
2021/10/04 08:18:45;;;;;;;4.40;3.83;;;;;;;;;;5011727;28;20476;-72
2021/10/04 08:21:11;;;;;;;4.28;3.88;;;;;;;;;;4986204;28;20029;-73
2021/10/04 08:23:37;;;;;;;4.45;3.60;;;;;;;;;;5013438;28;20052;-73
2021/10/04 08:26:03;;;;;;;4.85;3.80;;;;;;;;;;4994241;28;20436;-73
2021/10/04 08:28:28;;;;;;;4.40;4.00;;;;;;;;;;4979061;28;20026;-73
2021/10/04 08:30:54;;;;;;;4.32;3.78;;;;;;;;;;4986459;28;20040;-72
2021/10/04 08:33:19;;;;;;;4.80;3.70;;;;;;;;;;5012896;28;20403;-72
2021/10/04 08:35:44;;;;;;;4.93;4.43;;;;;;;;;;4992036;28;20052;-72
2021/10/04 08:38:09;;;;;;;3.77;3.47;;;;;;;;;;4978852;28;20120;-72
2021/10/04 08:40:37;;;;;;;5.87;5.10;;;;;;;;;;4991070;28;20293;-73
2021/10/04 08:43:02;;;;;;;4.50;4.10;;;;;;;;;;5008170;28;20364;-74
2021/10/04 08:45:28;;;;;;;4.57;4.15;;;;;;;;;;5004472;28;20101;-74
2021/10/04 08:47:58;;;;;;;4.93;4.43;;;;;;;;;;5013044;28;20048;-74
2021/10/04 08:50:24;;;;;;;6.15;4.68;;;;;;;;;;5012325;28;20022;-74
2021/10/04 08:52:49;;;;;;;4.53;4.13;;;;;;;;;;4994815;28;20137;-74
2021/10/04 08:55:14;;;;;;;5.07;4.68;;;;;;;;;;5012498;28;20555;-72
2021/10/04 08:57:40;;;;;;;5.55;4.50;;;;;;;;;;5010998;28;20058;-73
2021/10/04 09:00:06;;;;;;;5.85;4.30;;;;;;;;;;5010739;28;20025;-74
2021/10/04 09:02:32;;;;;;;5.20;4.68;;;;;;;;;;4996135;28;20018;-74
2021/10/04 09:05:08;;;;;;;5.50;4.93;;;;;;;;;;5011733;28;20123;-74
2021/10/04 09:07:44;;;;;;;6.03;4.63;;;;;;;;;;4991382;28;20028;-74
2021/10/04 09:10:10;;;;;;;5.95;4.45;;;;;;;;;;5010524;28;20057;-74
2021/10/04 09:12:43;;;;;;;6.28;4.82;;;;;;;;;;4995036;28;20018;-74
2021/10/04 09:15:22;;;;;;;5.40;4.90;;;;;;;;;;4994306;28;20053;-74
2021/10/04 09:17:48;;;;;;;4.75;4.35;;;;;;;;;;5012816;28;20013;-75
2021/10/04 09:20:14;;;;;;;5.95;5.35;;;;;;;;;;4994140;28;20010;-76
2021/10/04 09:22:39;;;;;;;6.22;5.63;;;;;;;;;;4992291;28;20028;-73
2021/10/04 09:25:06;;;;;;;5.40;5.00;;;;;;;;;;4988855;28;20361;-74
2021/10/04 09:27:38;;;;;;;4.78;4.38;;;;;;;;;;5012364;28;20084;-74
2021/10/04 09:30:10;;;;;;;4.43;4.00;;;;;;;;;;5011235;28;20101;-74
2021/10/04 09:32:37;;;;;;;3.95;3.55;;;;;;;;;;4994841;28;20040;-74
2021/10/04 09:35:16;;;;;;;2.67;2.47;;;;;;;;;;4994336;28;20057;-74
2021/10/04 09:37:42;;;;;;;3.33;2.70;;;;;;;;;;4994004;28;20068;-74
2021/10/04 09:40:43;;;;;;;3.55;2.70;;;;;;;;;;5011312;28;20105;-72
2021/10/04 09:43:10;;;;;;;2.00;1.88;;;;;;;;;;4921694;29;20028;-73
2021/10/04 09:45:35;;;;;;;2.10;1.90;;;;;;;;;;4912917;29;20450;-73
2021/10/04 09:48:06;;;;;;;1.60;1.45;;;;;;;;;;4913572;29;20032;-73
2021/10/04 09:50:32;;;;;;;1.50;1.35;;;;;;;;;;4912122;29;20087;-73
2021/10/04 09:52:58;;;;;;;1.63;1.23;;;;;;;;;;4928913;29;20483;-73
2021/10/04 09:55:26;;;;;;;2.00;0.85;;;;;;;;;;4910865;29;20028;-73
2021/10/04 09:57:55;;;;;;;1.80;0.82;;;;;;;;;;4897820;29;20153;-74
2021/10/04 10:00:21;;;;;;;1.23;0.70;;;;;;;;;;4898697;29;20031;-74
2021/10/04 10:02:47;;;;;;;1.73;1.00;;;;;;;;;;4897082;29;20406;-73
2021/10/04 10:05:12;;;;;;;1.83;0.90;;;;;;;;;;4896942;29;20044;-73
2021/10/04 10:07:37;;;;;;;1.15;1.00;;;;;;;;;;4913422;29;20553;-73
2021/10/04 10:10:03;;;;;;;1.52;0.90;;;;;;;;;;4912187;29;20410;-73
2021/10/04 10:12:28;;;;;;;1.35;0.60;;;;;;;;;;4907211;29;20035;-72
2021/10/04 10:14:54;;;;;;;0.70;0.55;;;;;;;;;;4910454;29;20387;-70
2021/10/04 10:17:22;;;;;;;1.42;0.80;;;;;;;;;;4969899;28;20033;-74
2021/10/04 10:19:48;;;;;;;0.63;0.55;;;;;;;;;;5010638;28;20025;-73
2021/10/04 10:22:14;;;;;;;1.05;0.50;;;;;;;;;;5011111;28;20030;-73
2021/10/04 10:24:39;;;;;;;1.48;0.80;;;;;;;;;;5008175;28;20018;-72
2021/10/04 10:27:04;;;;;;;2.88;0.38;;;;;;;;;;5011526;28;20025;-73
2021/10/04 10:29:30;;;;;;;0.57;0.32;;;;;;;;;;4993254;28;20026;-73
2021/10/04 10:31:55;;;;;;;2.92;0.60;;;;;;;;;;4992180;28;20034;-73
2021/10/04 10:34:29;;;;;;;1.75;0.45;;;;;;;;;;5010855;28;20037;-73
2021/10/04 10:36:56;;;;;;;1.23;0.55;;;;;;;;;;4992568;28;20025;-74
2021/10/04 10:39:32;;;;;;;1.42;0.70;;;;;;;;;;5012474;28;20026;-73
2021/10/04 10:42:12;;;;;;;2.60;0.50;;;;;;;;;;4992419;28;20431;-73
2021/10/04 10:45:10;;;;;;;2.05;0.90;;;;;;;;;;5010868;28;20026;-73
2021/10/04 10:47:38;;;;;;;0.80;0.50;;;;;;;;;;4967290;28;20030;-73
2021/10/04 10:50:22;;;;;;;2.90;0.30;;;;;;;;;;5009406;28;20460;-73
2021/10/04 10:53:00;;;;;;;1.05;0.20;;;;;;;;;;4973932;28;20030;-74
2021/10/04 10:55:33;;;;;;;0.20;0.10;;;;;;;;;;5008810;28;20026;-73
2021/10/04 10:58:08;;;;;;;1.10;0.20;;;;;;;;;;5010776;28;20054;-73
2021/10/04 11:00:41;;;;;;;1.40;0.20;;;;;;;;;;5010073;28;20112;-72
2021/10/04 11:03:23;;;;;;;2.30;0.30;;;;;;;;;;5010253;28;20032;-72
2021/10/04 11:05:51;;;;;;;0.50;0.30;;;;;;;;;;5011957;28;20164;-74
2021/10/04 11:08:18;;;;;;;2.13;0.30;;;;;;;;;;4993118;28;20451;-73
2021/10/04 11:10:45;;;;;;;2.17;0.45;;;;;;;;;;5010590;28;20108;-75
2021/10/04 11:13:11;;;;;;;1.85;0.47;;;;;;;;;;4996295;28;20476;-72
2021/10/04 11:15:37;;;;;;;1.83;0.60;;;;;;;;;;5010148;28;20061;-73
2021/10/04 11:18:06;;;;;;;1.42;0.85;;;;;;;;;;5011209;28;20257;-73
2021/10/04 11:20:31;;;;;;;1.73;0.70;;;;;;;;;;4994712;28;20197;-72
2021/10/04 11:23:10;;;;;;;2.78;0.80;;;;;;;;;;4996242;28;20116;-72
2021/10/04 11:25:42;;;;;;;1.30;0.45;;;;;;;;;;5017395;28;20021;-73
2021/10/04 11:28:07;;;;;;;3.90;0.60;;;;;;;;;;5015561;28;20520;-73
2021/10/04 11:30:51;;;;;;;1.05;0.47;;;;;;;;;;4995548;28;20057;-73
2021/10/04 11:33:17;;;;;;;1.48;0.75;;;;;;;;;;5014357;28;20036;-73
2021/10/04 11:35:57;;;;;;;5.20;0.80;;;;;;;;;;4997142;28;20113;-74
2021/10/04 11:38:23;;;;;;;2.00;0.60;;;;;;;;;;5013529;28;20018;-71
2021/10/04 11:40:48;;;;;;;2.35;0.68;;;;;;;;;;4996093;28;20032;-72
2021/10/04 11:43:14;;;;;;;1.25;0.80;;;;;;;;;;5024607;28;20353;-70
2021/10/04 11:45:39;;;;;;;1.02;0.63;;;;;;;;;;4997092;28;20033;-72
2021/10/04 11:48:05;;;;;;;4.00;0.60;;;;;;;;;;4996255;28;20037;-72
2021/10/04 11:50:31;;;;;;;1.30;0.80;;;;;;;;;;4996570;28;20033;-72
2021/10/04 11:53:00;;;;;;;1.80;0.95;;;;;;;;;;5013984;28;20021;-72
2021/10/04 11:55:25;;;;;;;2.90;1.00;;;;;;;;;;5009328;28;20022;-74
2021/10/04 11:57:50;;;;;;;3.53;1.30;;;;;;;;;;4969977;28;20081;-73
2021/10/04 12:00:16;;;;;;;1.50;1.00;;;;;;;;;;4992757;28;20017;-71
2021/10/04 12:02:45;;;;;;;2.47;1.05;;;;;;;;;;4992048;28;20045;-72
2021/10/04 12:05:12;;;;;;;2.47;1.08;;;;;;;;;;4994053;28;20021;-72
2021/10/04 12:07:53;;;;;;;2.15;1.17;;;;;;;;;;4994236;28;20054;-72
2021/10/04 12:10:18;;;;;;;2.58;1.38;;;;;;;;;;4995114;28;20531;-72
2021/10/04 12:12:43;;;;;;;1.63;1.40;;;;;;;;;;4993381;28;20129;-72
2021/10/04 12:15:08;;;;;;;3.80;1.50;;;;;;;;;;4991997;28;20041;-73
2021/10/04 12:17:35;;;;;;;3.17;1.48;;;;;;;;;;4991600;28;20374;-73
2021/10/04 12:20:00;;;;;;;1.20;1.10;;;;;;;;;;4993380;28;20033;-72
2021/10/04 12:22:33;;;;;;;1.92;1.45;;;;;;;;;;4994108;28;20485;-73
2021/10/04 12:24:58;;;;;;;2.03;1.45;;;;;;;;;;4997807;28;20038;-71
2021/10/04 12:27:23;;;;;;;2.30;1.35;;;;;;;;;;4983888;28;20029;-71
2021/10/04 12:29:57;;;;;;;1.33;1.13;;;;;;;;;;4990089;28;20049;-71
2021/10/04 12:32:24;;;;;;;1.02;0.52;;;;;;;;;;4990868;28;20018;-71
2021/10/04 12:35:08;;;;;;;2.88;1.40;;;;;;;;;;4993579;28;20031;-71
2021/10/04 12:37:56;;;;;;;2.33;1.10;;;;;;;;;;4999639;28;20108;-71
2021/10/04 12:40:24;;;;;;;2.08;1.13;;;;;;;;;;4983182;28;20030;-71
2021/10/04 12:42:51;;;;;;;1.58;1.10;;;;;;;;;;4991368;28;20072;-72
2021/10/04 12:45:16;;;;;;;1.83;1.60;;;;;;;;;;5002190;28;20503;-71
2021/10/04 12:47:58;;;;;;;1.20;0.95;;;;;;;;;;4973524;28;20030;-72
2021/10/04 12:50:24;;;;;;;3.35;1.20;;;;;;;;;;4995660;28;20023;-72
2021/10/04 12:52:49;;;;;;;1.98;1.48;;;;;;;;;;4993172;28;20028;-72
2021/10/04 12:55:14;;;;;;;3.10;1.55;;;;;;;;;;4989553;28;20031;-71
2021/10/04 12:57:40;;;;;;;3.80;2.67;;;;;;;;;;5007870;28;20069;-71
2021/10/04 13:00:06;;;;;;;4.20;2.25;;;;;;;;;;5010177;28;20361;-71
2021/10/04 13:02:31;;;;;;;4.57;2.60;;;;;;;;;;5011765;28;20022;-72
2021/10/04 13:04:57;;;;;;;2.97;2.00;;;;;;;;;;5005328;28;20079;-71
2021/10/04 13:07:29;;;;;;;2.88;1.65;;;;;;;;;;5004228;28;20081;-71
2021/10/04 13:09:54;;;;;;;2.40;1.73;;;;;;;;;;5013885;28;20033;-71
2021/10/04 13:12:23;;;;;;;3.28;1.90;;;;;;;;;;5024857;28;20029;-72
2021/10/04 13:14:48;;;;;;;5.30;2.10;;;;;;;;;;5010499;28;20346;-71
2021/10/04 13:17:14;;;;;;;2.33;2.13;;;;;;;;;;4993552;28;20028;-70
2021/10/04 13:19:39;;;;;;;3.13;2.83;;;;;;;;;;5006330;28;20468;-71
2021/10/04 13:22:04;;;;;;;2.40;2.20;;;;;;;;;;5018057;28;20761;-71
2021/10/04 13:24:30;;;;;;;2.85;2.50;;;;;;;;;;5009369;28;20038;-71
2021/10/04 13:26:55;;;;;;;2.33;2.08;;;;;;;;;;5003638;28;20080;-71
2021/10/04 13:29:20;;;;;;;2.00;1.75;;;;;;;;;;5012822;28;20049;-70
2021/10/04 13:31:46;;;;;;;1.90;1.80;;;;;;;;;;5019329;28;20480;-72
2021/10/04 13:34:12;;;;;;;2.20;1.60;;;;;;;;;;4998045;28;20025;-72
2021/10/04 13:36:37;;;;;;;2.30;2.10;;;;;;;;;;4990190;28;20022;-71
2021/10/04 13:39:02;;;;;;;2.55;2.35;;;;;;;;;;5010912;28;20034;-72
2021/10/04 13:41:28;;;;;;;2.47;1.83;;;;;;;;;;5008745;28;20013;-72
2021/10/04 13:43:53;;;;;;;2.42;2.17;;;;;;;;;;5006210;28;20022;-71
2021/10/04 13:46:19;;;;;;;2.40;2.20;;;;;;;;;;4994238;28;20467;-72
2021/10/04 13:48:44;;;;;;;2.10;1.90;;;;;;;;;;5012769;28;20057;-72
2021/10/04 13:51:10;;;;;;;1.52;1.40;;;;;;;;;;4996802;28;20032;-72
2021/10/04 13:53:35;;;;;;;1.27;1.10;;;;;;;;;;5010943;28;20033;-72
2021/10/04 13:56:02;;;;;;;1.25;0.70;;;;;;;;;;5001329;28;20049;-72
2021/10/04 13:58:27;;;;;;;2.08;0.40;;;;;;;;;;5015425;28;20487;-72
2021/10/04 14:00:53;;;;;;;2.65;0.77;;;;;;;;;;5013922;28;20029;-72
2021/10/04 14:03:18;;;;;;;1.80;0.50;;;;;;;;;;5010488;28;20038;-72
2021/10/04 14:05:43;;;;;;;1.45;0.70;;;;;;;;;;4990687;28;20018;-71
2021/10/04 14:08:08;;;;;;;0.95;0.88;;;;;;;;;;5005990;28;20025;-72
2021/10/04 14:10:34;;;;;;;1.48;0.90;;;;;;;;;;4984583;28;20088;-72
2021/10/04 14:12:59;;;;;;;0.88;0.50;;;;;;;;;;4991043;28;20042;-71
2021/10/04 14:15:26;;;;;;;3.72;0.80;;;;;;;;;;5011385;28;20108;-72
2021/10/04 14:17:51;;;;;;;1.25;0.63;;;;;;;;;;5006384;28;20022;-71
2021/10/04 14:20:17;;;;;;;1.50;0.65;;;;;;;;;;5012971;28;20273;-71
2021/10/04 14:22:45;;;;;;;1.10;0.77;;;;;;;;;;5014408;28;20468;-70
2021/10/04 14:25:11;;;;;;;1.85;0.80;;;;;;;;;;5007758;28;20022;-71
2021/10/04 14:27:36;;;;;;;1.38;1.08;;;;;;;;;;4996596;28;20370;-71
2021/10/04 14:30:02;;;;;;;2.97;0.60;;;;;;;;;;4978618;28;20038;-72
2021/10/04 14:32:27;;;;;;;0.80;0.70;;;;;;;;;;5009903;28;20029;-72
2021/10/04 14:34:52;;;;;;;1.42;0.68;;;;;;;;;;4987213;28;20036;-71
2021/10/04 14:37:18;;;;;;;1.20;0.60;;;;;;;;;;5009214;28;20029;-71
2021/10/04 14:39:43;;;;;;;1.95;0.80;;;;;;;;;;5012230;28;20018;-71